Terminal Aerodrome Forecast
Issued by NWS

Home | Current Version | Previous Version | Text Only | Print | Product List | Glossary On
Versions: 1 2 3 4 5 6 7 8 9 10 11 12 13 14 15 16 17 18 19 20 21 22 23 24 25 26 27 28 29 30 31 32 33 34 35 36 37 38
000
FTUS45 KBOI 271151 CCA
TAFMYL
TAF COR
KMYL 271151Z 2712/2812 13005KT 1SM -SHSN BR BKN008 OVC020
     FM271300 VRB04KT 6SM -SHSN BR BKN015 OVC040
     FM271800 30008KT P6SM BKN035
     FM280200 33005KT P6SM VCFG SCT030
     FM280600 VRB03KT 1/2SM FZFG BKN005=

USA.gov is the U.S. government's official web portal to all federal, state and local government web resources and services.